TimeCST,TemperatureF,Dew PointF,Humidity,Sea Level PressureIn,VisibilityMPH,Wind Direction,Wind SpeedMPH,Gust SpeedMPH,PrecipitationIn,Events,Conditions,WindDirDegrees,DateUTC
9:15 AM,21.2,21.2,100,29.87,5.0,East,9.2,-,N/A,,Overcast,100,2013-03-03 15:15:00
9:59 AM,23.0,21.2,93,29.86,7.0,ESE,11.5,-,N/A,,Overcast,120,2013-03-03 15:59:00
10:55 AM,23.5,22.5,96,29.85,8.0,ESE,13.8,-,N/A,,Overcast,110,2013-03-03 16:55:00
11:33 AM,24.8,23.0,93,29.83,8.0,ESE,15.0,-,N/A,,Overcast,110,2013-03-03 17:33:00
11:55 AM,25.0,23.9,96,29.83,9.0,ESE,16.1,-,N/A,,Overcast,110,2013-03-03 17:55:00
12:35 PM,26.6,24.8,93,29.81,10.0,ESE,18.4,-,N/A,,Overcast,120,2013-03-03 18:35:00
12:55 PM,26.2,25.5,97,29.80,10.0,ESE,17.3,-,N/A,,Overcast,120,2013-03-03 18:55:00
1:33 PM,26.6,24.8,93,29.78,10.0,ESE,17.3,-,N/A,,Overcast,110,2013-03-03 19:33:00
1:55 PM,26.6,25.3,95,29.76,10.0,ESE,16.1,-,N/A,,Overcast,110,2013-03-03 19:55:00
2:55 PM,27.0,23.7,88,29.75,10.0,East,19.6,-,N/A,,Overcast,100,2013-03-03 20:55:00
3:30 PM,26.6,23.0,86,29.77,10.0,ESE,20.7,-,N/A,,Overcast,120,2013-03-03 21:30:00
3:44 PM,26.6,23.0,86,29.76,10.0,ESE,21.9,-,N/A,,Overcast,120,2013-03-03 21:44:00
3:55 PM,26.4,23.0,87,29.76,10.0,ESE,19.6,-,N/A,,Overcast,120,2013-03-03 21:55:00
4:55 PM,26.1,23.0,88,29.76,10.0,ESE,15.0,-,N/A,,Overcast,110,2013-03-03 22:55:00
5:52 PM,24.8,23.0,93,29.75,2.5,East,17.3,-,N/A,,Overcast,100,2013-03-03 23:52:00
5:55 PM,25.3,23.2,91,29.75,2.5,East,16.1,-,0.00,,Overcast,100,2013-03-03 23:55:00
6:06 PM,24.8,23.0,93,29.75,2.0,ESE,20.7,-,N/A,,Overcast,110,2013-03-04 00:06:00
6:22 PM,24.8,23.0,93,29.75,3.0,ESE,18.4,-,N/A,,Freezing Rain,110,2013-03-04 00:22:00
6:48 PM,24.8,23.0,93,29.76,4.0,ESE,15.0,-,N/A,,Overcast,110,2013-03-04 00:48:00
6:55 PM,25.2,23.4,93,29.76,5.0,ESE,13.8,-,0.00,,Overcast,110,2013-03-04 00:55:00
6:58 PM,24.8,23.0,93,29.76,5.0,ESE,13.8,-,N/A,,Overcast,110,2013-03-04 00:58:00
7:03 PM,24.8,23.0,93,29.76,5.0,East,13.8,-,N/A,,Overcast,100,2013-03-04 01:03:00
7:10 PM,24.8,23.0,93,29.77,5.0,ESE,13.8,-,N/A,,Overcast,110,2013-03-04 01:10:00
7:17 PM,24.8,23.0,93,29.77,5.0,ESE,15.0,-,N/A,,Overcast,110,2013-03-04 01:17:00
7:21 PM,24.8,23.0,93,29.77,5.0,ESE,17.3,-,N/A,,Overcast,110,2013-03-04 01:21:00
7:22 PM,24.8,23.0,93,29.76,5.0,ESE,16.1,-,N/A,,Overcast,110,2013-03-04 01:22:00
7:43 PM,24.8,23.0,93,29.76,4.0,East,15.0,-,N/A,,Overcast,100,2013-03-04 01:43:00
7:55 PM,25.0,23.4,94,29.76,4.0,ESE,15.0,-,0.00,,Overcast,110,2013-03-04 01:55:00
7:56 PM,24.8,23.0,93,29.76,4.0,ESE,15.0,-,N/A,,Overcast,110,2013-03-04 01:56:00
8:08 PM,24.8,23.0,93,29.76,5.0,ESE,18.4,-,N/A,,Overcast,110,2013-03-04 02:08:00
8:28 PM,24.8,23.0,93,29.76,5.0,East,18.4,-,N/A,,Overcast,100,2013-03-04 02:28:00
8:55 PM,24.4,22.5,92,29.75,5.0,East,19.6,-,N/A,,Overcast,100,2013-03-04 02:55:00
9:03 PM,24.8,23.0,93,29.76,6.0,ESE,19.6,-,N/A,,Overcast,110,2013-03-04 03:03:00
9:05 PM,24.8,23.0,93,29.76,6.0,ESE,17.3,-,N/A,,Overcast,110,2013-03-04 03:05:00
9:08 PM,24.8,21.2,86,29.76,7.0,East,20.7,-,N/A,,Overcast,100,2013-03-04 03:08:00
9:15 PM,24.8,21.2,86,29.75,8.0,East,15.0,-,N/A,,Overcast,100,2013-03-04 03:15:00
9:27 PM,24.8,23.0,93,29.75,7.0,East,18.4,-,N/A,,Overcast,100,2013-03-04 03:27:00
9:30 PM,24.8,21.2,86,29.75,8.0,East,19.6,-,N/A,,Overcast,100,2013-03-04 03:30:00
9:32 PM,24.8,21.2,86,29.76,8.0,East,19.6,-,N/A,,Overcast,100,2013-03-04 03:32:00
9:39 PM,24.8,21.2,86,29.76,8.0,East,19.6,-,N/A,,Overcast,100,2013-03-04 03:39:00
9:47 PM,24.8,21.2,86,29.75,8.0,East,18.4,-,N/A,,Overcast,90,2013-03-04 03:47:00
9:55 PM,23.9,21.9,92,29.75,7.0,East,17.3,-,N/A,,Overcast,90,2013-03-04 03:55:00
10:52 PM,24.8,23.0,93,29.74,5.0,East,17.3,-,N/A,,Overcast,90,2013-03-04 04:52:00
10:55 PM,23.9,22.1,93,29.74,5.0,East,17.3,-,0.00,,Overcast,90,2013-03-04 04:55:00
11:07 PM,24.8,23.0,93,29.74,5.0,East,17.3,-,N/A,,Overcast,90,2013-03-04 05:07:00
11:13 PM,24.8,23.0,93,29.74,5.0,East,16.1,-,N/A,,Overcast,90,2013-03-04 05:13:00
11:41 PM,24.8,23.0,93,29.74,8.0,East,19.6,-,N/A,,Overcast,100,2013-03-04 05:41:00
11:53 PM,24.8,23.0,93,29.73,9.0,East,17.3,-,N/A,,Overcast,90,2013-03-04 05:53:00
11:55 PM,24.4,22.6,93,29.73,9.0,East,15.0,-,0.00,,Overcast,90,2013-03-04 05:55:00